sensor_id;sensor_type;location;lat;lon;timestamp;P1;durP1;ratioP1;P2;durP2;ratioP2
39788;SDS011;25478;42.626;23.320;2022-09-16T00:01:29;7.07;;;2.35;;
39788;SDS011;25478;42.626;23.320;2022-09-16T00:03:55;10.93;;;2.30;;
39788;SDS011;25478;42.626;23.320;2022-09-16T00:06:22;10.45;;;2.30;;
39788;SDS011;25478;42.626;23.320;2022-09-16T00:08:56;8.55;;;2.65;;
39788;SDS011;25478;42.626;23.320;2022-09-16T00:11:25;8.73;;;2.30;;
39788;SDS011;25478;42.626;23.320;2022-09-16T00:13:51;8.25;;;2.28;;
39788;SDS011;25478;42.626;23.320;2022-09-16T00:16:18;10.65;;;3.05;;
39788;SDS011;25478;42.626;23.320;2022-09-16T00:18:45;12.40;;;2.85;;
39788;SDS011;25478;42.626;23.320;2022-09-16T00:21:11;7.97;;;2.47;;
39788;SDS011;25478;42.626;23.320;2022-09-16T00:23:37;7.20;;;2.33;;
39788;SDS011;25478;42.626;23.320;2022-09-16T00:26:03;7.30;;;2.28;;
39788;SDS011;25478;42.626;23.320;2022-09-16T00:28:29;7.53;;;2.50;;
39788;SDS011;25478;42.626;23.320;2022-09-16T00:31:01;7.65;;;2.50;;
39788;SDS011;25478;42.626;23.320;2022-09-16T00:33:27;10.18;;;2.55;;
39788;SDS011;25478;42.626;23.320;2022-09-16T00:38:43;4.95;;;2.42;;
39788;SDS011;25478;42.626;23.320;2022-09-16T00:41:16;6.53;;;2.40;;
39788;SDS011;25478;42.626;23.320;2022-09-16T00:46:14;11.88;;;2.95;;
39788;SDS011;25478;42.626;23.320;2022-09-16T00:48:41;10.35;;;2.60;;
39788;SDS011;25478;42.626;23.320;2022-09-16T00:51:07;10.65;;;2.80;;
39788;SDS011;25478;42.626;23.320;2022-09-16T00:53:46;8.15;;;3.05;;
39788;SDS011;25478;42.626;23.320;2022-09-16T00:56:17;9.68;;;2.40;;
39788;SDS011;25478;42.626;23.320;2022-09-16T00:58:55;11.65;;;2.90;;
39788;SDS011;25478;42.626;23.320;2022-09-16T01:01:28;9.75;;;2.70;;
39788;SDS011;25478;42.626;23.320;2022-09-16T01:03:56;9.32;;;2.83;;
39788;SDS011;25478;42.626;23.320;2022-09-16T01:06:27;8.43;;;2.72;;
39788;SDS011;25478;42.626;23.320;2022-09-16T01:08:54;8.65;;;2.33;;
39788;SDS011;25478;42.626;23.320;2022-09-16T01:11:21;8.65;;;2.58;;
39788;SDS011;25478;42.626;23.320;2022-09-16T01:13:46;7.38;;;2.35;;
39788;SDS011;25478;42.626;23.320;2022-09-16T01:16:29;6.63;;;2.55;;
39788;SDS011;25478;42.626;23.320;2022-09-16T01:21:33;9.15;;;2.70;;
39788;SDS011;25478;42.626;23.320;2022-09-16T01:37:14;9.90;;;2.85;;
39788;SDS011;25478;42.626;23.320;2022-09-16T01:40:46;8.80;;;2.30;;
39788;SDS011;25478;42.626;23.320;2022-09-16T01:51:29;11.10;;;2.67;;
39788;SDS011;25478;42.626;23.320;2022-09-16T02:04:54;7.30;;;2.17;;
39788;SDS011;25478;42.626;23.320;2022-09-16T02:07:22;8.93;;;2.75;;
39788;SDS011;25478;42.626;23.320;2022-09-16T02:09:55;8.55;;;2.67;;
39788;SDS011;25478;42.626;23.320;2022-09-16T02:12:26;7.47;;;2.50;;
39788;SDS011;25478;42.626;23.320;2022-09-16T02:14:58;7.20;;;2.55;;
39788;SDS011;25478;42.626;23.320;2022-09-16T02:17:29;7.10;;;2.55;;
39788;SDS011;25478;42.626;23.320;2022-09-16T02:19:59;7.28;;;2.90;;
39788;SDS011;25478;42.626;23.320;2022-09-16T02:22:31;8.30;;;2.67;;
39788;SDS011;25478;42.626;23.320;2022-09-16T02:25:02;6.93;;;2.30;;
39788;SDS011;25478;42.626;23.320;2022-09-16T02:27:29;7.82;;;2.60;;
39788;SDS011;25478;42.626;23.320;2022-09-16T02:30:06;11.07;;;2.70;;
39788;SDS011;25478;42.626;23.320;2022-09-16T02:32:39;9.02;;;2.65;;
39788;SDS011;25478;42.626;23.320;2022-09-16T02:35:08;8.35;;;2.72;;
39788;SDS011;25478;42.626;23.320;2022-09-16T02:37:38;8.02;;;2.10;;
39788;SDS011;25478;42.626;23.320;2022-09-16T02:40:14;9.13;;;3.20;;
39788;SDS011;25478;42.626;23.320;2022-09-16T02:42:44;10.27;;;2.70;;
39788;SDS011;25478;42.626;23.320;2022-09-16T02:45:09;10.15;;;2.60;;
39788;SDS011;25478;42.626;23.320;2022-09-16T02:50:16;9.00;;;2.65;;
39788;SDS011;25478;42.626;23.320;2022-09-16T02:56:03;6.40;;;2.50;;
39788;SDS011;25478;42.626;23.320;2022-09-16T02:58:34;7.30;;;3.08;;
39788;SDS011;25478;42.626;23.320;2022-09-16T03:01:00;8.40;;;2.53;;
39788;SDS011;25478;42.626;23.320;2022-09-16T03:03:26;8.35;;;2.92;;
39788;SDS011;25478;42.626;23.320;2022-09-16T03:08:33;5.70;;;2.40;;
39788;SDS011;25478;42.626;23.320;2022-09-16T03:11:03;6.30;;;2.25;;
39788;SDS011;25478;42.626;23.320;2022-09-16T03:22:05;10.43;;;2.50;;
39788;SDS011;25478;42.626;23.320;2022-09-16T03:24:45;6.18;;;2.58;;
39788;SDS011;25478;42.626;23.320;2022-09-16T03:27:15;8.20;;;2.47;;
39788;SDS011;25478;42.626;23.320;2022-09-16T03:30:00;7.20;;;2.58;;
39788;SDS011;25478;42.626;23.320;2022-09-16T03:32:30;10.48;;;2.45;;
39788;SDS011;25478;42.626;23.320;2022-09-16T03:35:04;9.65;;;2.85;;
39788;SDS011;25478;42.626;23.320;2022-09-16T03:37:36;5.53;;;2.50;;
39788;SDS011;25478;42.626;23.320;2022-09-16T03:40:11;8.35;;;2.85;;
39788;SDS011;25478;42.626;23.320;2022-09-16T03:42:39;7.28;;;2.30;;
39788;SDS011;25478;42.626;23.320;2022-09-16T03:45:07;10.90;;;2.65;;
39788;SDS011;25478;42.626;23.320;2022-09-16T03:47:37;8.10;;;2.40;;
39788;SDS011;25478;42.626;23.320;2022-09-16T03:50:03;12.10;;;2.58;;
39788;SDS011;25478;42.626;23.320;2022-09-16T03:52:29;10.05;;;2.88;;
39788;SDS011;25478;42.626;23.320;2022-09-16T03:54:55;9.82;;;2.67;;
39788;SDS011;25478;42.626;23.320;2022-09-16T03:57:20;7.40;;;2.75;;
39788;SDS011;25478;42.626;23.320;2022-09-16T03:59:46;10.98;;;2.92;;
39788;SDS011;25478;42.626;23.320;2022-09-16T04:02:11;10.98;;;2.40;;
39788;SDS011;25478;42.626;23.320;2022-09-16T04:04:37;7.93;;;2.50;;
39788;SDS011;25478;42.626;23.320;2022-09-16T04:07:02;9.40;;;2.67;;
39788;SDS011;25478;42.626;23.320;2022-09-16T04:09:28;11.25;;;2.28;;
39788;SDS011;25478;42.626;23.320;2022-09-16T04:11:53;8.95;;;2.53;;
39788;SDS011;25478;42.626;23.320;2022-09-16T04:14:19;8.45;;;2.53;;
39788;SDS011;25478;42.626;23.320;2022-09-16T04:16:44;8.50;;;2.33;;
39788;SDS011;25478;42.626;23.320;2022-09-16T04:19:11;10.07;;;2.72;;
39788;SDS011;25478;42.626;23.320;2022-09-16T04:21:38;10.25;;;3.22;;
39788;SDS011;25478;42.626;23.320;2022-09-16T04:24:04;7.78;;;2.58;;
39788;SDS011;25478;42.626;23.320;2022-09-16T04:26:30;8.32;;;2.50;;
39788;SDS011;25478;42.626;23.320;2022-09-16T04:28:55;13.27;;;3.88;;
39788;SDS011;25478;42.626;23.320;2022-09-16T04:31:21;12.85;;;4.07;;
39788;SDS011;25478;42.626;23.320;2022-09-16T04:33:47;11.13;;;3.13;;
39788;SDS011;25478;42.626;23.320;2022-09-16T04:36:14;6.88;;;2.65;;
39788;SDS011;25478;42.626;23.320;2022-09-16T04:38:42;7.50;;;2.58;;
39788;SDS011;25478;42.626;23.320;2022-09-16T04:41:13;10.05;;;2.58;;
39788;SDS011;25478;42.626;23.320;2022-09-16T04:43:49;10.52;;;3.08;;
39788;SDS011;25478;42.626;23.320;2022-09-16T04:46:22;11.98;;;3.25;;
39788;SDS011;25478;42.626;23.320;2022-09-16T04:48:49;12.02;;;3.40;;
39788;SDS011;25478;42.626;23.320;2022-09-16T04:51:16;11.80;;;3.47;;
39788;SDS011;25478;42.626;23.320;2022-09-16T04:53:43;13.55;;;4.20;;
39788;SDS011;25478;42.626;23.320;2022-09-16T04:56:14;10.82;;;3.55;;
39788;SDS011;25478;42.626;23.320;2022-09-16T04:58:40;11.38;;;3.50;;
39788;SDS011;25478;42.626;23.320;2022-09-16T05:01:14;8.02;;;2.95;;
39788;SDS011;25478;42.626;23.320;2022-09-16T05:03:42;10.88;;;3.20;;
39788;SDS011;25478;42.626;23.320;2022-09-16T05:06:10;11.52;;;3.25;;
39788;SDS011;25478;42.626;23.320;2022-09-16T05:08:38;10.20;;;2.70;;
39788;SDS011;25478;42.626;23.320;2022-09-16T05:11:05;9.95;;;2.95;;
39788;SDS011;25478;42.626;23.320;2022-09-16T05:13:32;9.52;;;2.78;;
39788;SDS011;25478;42.626;23.320;2022-09-16T05:16:01;8.57;;;3.03;;
39788;SDS011;25478;42.626;23.320;2022-09-16T05:18:28;13.45;;;3.10;;
39788;SDS011;25478;42.626;23.320;2022-09-16T05:20:58;10.07;;;3.20;;
39788;SDS011;25478;42.626;23.320;2022-09-16T05:23:24;11.35;;;3.03;;
39788;SDS011;25478;42.626;23.320;2022-09-16T05:25:50;10.32;;;2.92;;
39788;SDS011;25478;42.626;23.320;2022-09-16T05:28:15;9.15;;;3.35;;
39788;SDS011;25478;42.626;23.320;2022-09-16T05:30:41;8.43;;;3.42;;
39788;SDS011;25478;42.626;23.320;2022-09-16T05:33:06;8.57;;;2.80;;
39788;SDS011;25478;42.626;23.320;2022-09-16T05:35:32;11.13;;;3.25;;
39788;SDS011;25478;42.626;23.320;2022-09-16T05:37:57;12.90;;;3.75;;
39788;SDS011;25478;42.626;23.320;2022-09-16T05:40:23;12.88;;;3.20;;
39788;SDS011;25478;42.626;23.320;2022-09-16T05:42:51;9.43;;;2.67;;
39788;SDS011;25478;42.626;23.320;2022-09-16T05:45:17;12.02;;;3.15;;
39788;SDS011;25478;42.626;23.320;2022-09-16T05:47:49;12.02;;;3.03;;
39788;SDS011;25478;42.626;23.320;2022-09-16T05:50:15;8.43;;;2.75;;
39788;SDS011;25478;42.626;23.320;2022-09-16T05:52:41;17.05;;;3.70;;
39788;SDS011;25478;42.626;23.320;2022-09-16T05:55:07;13.57;;;2.63;;
39788;SDS011;25478;42.626;23.320;2022-09-16T05:57:33;7.68;;;2.65;;
39788;SDS011;25478;42.626;23.320;2022-09-16T05:59:59;7.95;;;2.83;;
39788;SDS011;25478;42.626;23.320;2022-09-16T06:02:24;10.45;;;2.97;;
39788;SDS011;25478;42.626;23.320;2022-09-16T06:04:50;7.95;;;2.72;;
39788;SDS011;25478;42.626;23.320;2022-09-16T06:07:16;12.23;;;3.22;;
39788;SDS011;25478;42.626;23.320;2022-09-16T06:09:42;7.95;;;2.50;;
39788;SDS011;25478;42.626;23.320;2022-09-16T06:12:08;7.75;;;2.28;;
39788;SDS011;25478;42.626;23.320;2022-09-16T06:14:35;15.50;;;3.03;;
39788;SDS011;25478;42.626;23.320;2022-09-16T06:17:00;11.57;;;2.80;;
39788;SDS011;25478;42.626;23.320;2022-09-16T06:19:26;9.45;;;2.47;;
39788;SDS011;25478;42.626;23.320;2022-09-16T06:21:52;13.50;;;2.65;;
39788;SDS011;25478;42.626;23.320;2022-09-16T06:24:18;8.35;;;2.90;;
39788;SDS011;25478;42.626;23.320;2022-09-16T06:26:45;11.00;;;2.85;;
39788;SDS011;25478;42.626;23.320;2022-09-16T06:29:12;9.23;;;2.63;;
39788;SDS011;25478;42.626;23.320;2022-09-16T06:31:38;8.85;;;2.85;;
39788;SDS011;25478;42.626;23.320;2022-09-16T06:34:05;9.90;;;2.45;;
39788;SDS011;25478;42.626;23.320;2022-09-16T06:36:35;7.45;;;2.35;;
39788;SDS011;25478;42.626;23.320;2022-09-16T06:39:03;10.73;;;2.38;;
39788;SDS011;25478;42.626;23.320;2022-09-16T06:41:30;10.93;;;2.47;;
39788;SDS011;25478;42.626;23.320;2022-09-16T06:43:57;12.80;;;2.60;;
39788;SDS011;25478;42.626;23.320;2022-09-16T06:46:24;13.27;;;2.85;;
39788;SDS011;25478;42.626;23.320;2022-09-16T06:48:52;11.40;;;2.40;;
39788;SDS011;25478;42.626;23.320;2022-09-16T06:51:21;11.38;;;3.10;;
39788;SDS011;25478;42.626;23.320;2022-09-16T06:53:49;10.35;;;3.05;;
39788;SDS011;25478;42.626;23.320;2022-09-16T06:56:16;7.65;;;2.03;;
39788;SDS011;25478;42.626;23.320;2022-09-16T06:58:44;9.45;;;2.45;;
39788;SDS011;25478;42.626;23.320;2022-09-16T07:01:25;8.82;;;2.47;;
39788;SDS011;25478;42.626;23.320;2022-09-16T07:03:52;8.57;;;2.47;;
39788;SDS011;25478;42.626;23.320;2022-09-16T07:06:19;8.05;;;2.50;;
39788;SDS011;25478;42.626;23.320;2022-09-16T07:08:46;10.18;;;2.40;;
39788;SDS011;25478;42.626;23.320;2022-09-16T07:11:16;11.73;;;2.72;;
39788;SDS011;25478;42.626;23.320;2022-09-16T07:13:44;9.93;;;2.40;;
39788;SDS011;25478;42.626;23.320;2022-09-16T07:16:12;9.40;;;2.45;;
39788;SDS011;25478;42.626;23.320;2022-09-16T07:18:43;11.77;;;2.22;;
39788;SDS011;25478;42.626;23.320;2022-09-16T07:21:11;9.50;;;2.42;;
39788;SDS011;25478;42.626;23.320;2022-09-16T07:23:39;7.38;;;2.25;;
39788;SDS011;25478;42.626;23.320;2022-09-16T07:26:06;8.18;;;2.80;;
39788;SDS011;25478;42.626;23.320;2022-09-16T07:28:46;6.05;;;2.13;;
39788;SDS011;25478;42.626;23.320;2022-09-16T07:31:16;8.10;;;2.20;;
39788;SDS011;25478;42.626;23.320;2022-09-16T07:33:47;13.82;;;3.20;;
39788;SDS011;25478;42.626;23.320;2022-09-16T07:36:15;12.20;;;3.17;;
39788;SDS011;25478;42.626;23.320;2022-09-16T07:38:43;9.80;;;3.25;;
39788;SDS011;25478;42.626;23.320;2022-09-16T07:41:13;11.45;;;3.03;;
39788;SDS011;25478;42.626;23.320;2022-09-16T07:43:41;8.45;;;2.40;;
39788;SDS011;25478;42.626;23.320;2022-09-16T07:46:08;10.45;;;3.28;;
39788;SDS011;25478;42.626;23.320;2022-09-16T07:48:35;13.20;;;2.50;;
39788;SDS011;25478;42.626;23.320;2022-09-16T07:51:05;9.95;;;3.08;;
39788;SDS011;25478;42.626;23.320;2022-09-16T07:53:33;8.32;;;2.72;;
39788;SDS011;25478;42.626;23.320;2022-09-16T07:56:07;12.68;;;3.10;;
39788;SDS011;25478;42.626;23.320;2022-09-16T07:58:34;11.52;;;2.70;;
39788;SDS011;25478;42.626;23.320;2022-09-16T08:01:00;9.35;;;2.85;;
39788;SDS011;25478;42.626;23.320;2022-09-16T08:03:27;11.05;;;2.45;;
39788;SDS011;25478;42.626;23.320;2022-09-16T08:05:57;8.55;;;2.90;;
39788;SDS011;25478;42.626;23.320;2022-09-16T08:08:28;11.40;;;3.08;;
39788;SDS011;25478;42.626;23.320;2022-09-16T08:10:54;12.10;;;2.92;;
39788;SDS011;25478;42.626;23.320;2022-09-16T08:13:21;9.60;;;2.85;;
39788;SDS011;25478;42.626;23.320;2022-09-16T08:15:46;14.55;;;3.13;;
39788;SDS011;25478;42.626;23.320;2022-09-16T08:18:12;13.13;;;3.47;;
39788;SDS011;25478;42.626;23.320;2022-09-16T08:20:38;13.02;;;3.60;;
39788;SDS011;25478;42.626;23.320;2022-09-16T08:23:03;10.23;;;3.17;;
39788;SDS011;25478;42.626;23.320;2022-09-16T08:25:29;12.18;;;3.15;;
39788;SDS011;25478;42.626;23.320;2022-09-16T08:27:54;10.88;;;3.05;;
39788;SDS011;25478;42.626;23.320;2022-09-16T08:30:20;8.23;;;3.00;;
39788;SDS011;25478;42.626;23.320;2022-09-16T08:32:45;12.48;;;3.20;;
39788;SDS011;25478;42.626;23.320;2022-09-16T08:35:11;12.82;;;3.17;;
39788;SDS011;25478;42.626;23.320;2022-09-16T08:37:38;13.55;;;3.75;;
39788;SDS011;25478;42.626;23.320;2022-09-16T08:40:05;11.68;;;3.22;;
39788;SDS011;25478;42.626;23.320;2022-09-16T08:48:19;9.70;;;3.05;;
39788;SDS011;25478;42.626;23.320;2022-09-16T08:50:54;14.30;;;3.20;;
39788;SDS011;25478;42.626;23.320;2022-09-16T08:53:31;10.75;;;3.30;;
39788;SDS011;25478;42.626;23.320;2022-09-16T08:56:03;11.30;;;3.05;;
39788;SDS011;25478;42.626;23.320;2022-09-16T08:58:39;10.52;;;3.30;;
39788;SDS011;25478;42.626;23.320;2022-09-16T09:03:47;11.38;;;3.00;;
39788;SDS011;25478;42.626;23.320;2022-09-16T09:11:47;8.25;;;3.10;;
39788;SDS011;25478;42.626;23.320;2022-09-16T09:16:58;9.90;;;3.58;;
39788;SDS011;25478;42.626;23.320;2022-09-16T09:24:49;12.43;;;3.55;;
39788;SDS011;25478;42.626;23.320;2022-09-16T09:27:40;15.90;;;3.75;;
39788;SDS011;25478;42.626;23.320;2022-09-16T09:41:29;14.05;;;3.25;;
39788;SDS011;25478;42.626;23.320;2022-09-16T09:44:12;9.82;;;3.58;;
39788;SDS011;25478;42.626;23.320;2022-09-16T09:46:44;10.93;;;3.42;;
39788;SDS011;25478;42.626;23.320;2022-09-16T09:49:14;9.02;;;3.30;;
39788;SDS011;25478;42.626;23.320;2022-09-16T09:51:50;11.40;;;3.97;;
39788;SDS011;25478;42.626;23.320;2022-09-16T09:56:49;12.73;;;3.47;;
39788;SDS011;25478;42.626;23.320;2022-09-16T10:01:57;12.23;;;3.53;;
39788;SDS011;25478;42.626;23.320;2022-09-16T10:04:26;17.65;;;4.10;;
39788;SDS011;25478;42.626;23.320;2022-09-16T10:06:59;14.95;;;4.05;;
39788;SDS011;25478;42.626;23.320;2022-09-16T10:09:25;15.20;;;4.70;;
39788;SDS011;25478;42.626;23.320;2022-09-16T10:11:52;15.90;;;3.90;;
39788;SDS011;25478;42.626;23.320;2022-09-16T10:16:51;12.07;;;3.67;;
39788;SDS011;25478;42.626;23.320;2022-09-16T10:19:23;9.63;;;3.75;;
39788;SDS011;25478;42.626;23.320;2022-09-16T10:24:28;13.50;;;3.55;;
39788;SDS011;25478;42.626;23.320;2022-09-16T10:26:59;13.95;;;3.05;;
39788;SDS011;25478;42.626;23.320;2022-09-16T10:29:25;11.90;;;3.58;;
39788;SDS011;25478;42.626;23.320;2022-09-16T10:31:52;10.63;;;3.83;;
39788;SDS011;25478;42.626;23.320;2022-09-16T10:39:24;7.43;;;2.60;;
39788;SDS011;25478;42.626;23.320;2022-09-16T10:41:52;5.85;;;2.58;;
39788;SDS011;25478;42.626;23.320;2022-09-16T10:44:28;6.60;;;2.67;;
39788;SDS011;25478;42.626;23.320;2022-09-16T10:47:00;4.80;;;1.88;;
39788;SDS011;25478;42.626;23.320;2022-09-16T10:49:33;6.43;;;1.77;;
39788;SDS011;25478;42.626;23.320;2022-09-16T10:52:22;4.07;;;1.52;;
39788;SDS011;25478;42.626;23.320;2022-09-16T10:54:49;5.32;;;1.40;;
39788;SDS011;25478;42.626;23.320;2022-09-16T10:57:23;6.35;;;1.25;;
39788;SDS011;25478;42.626;23.320;2022-09-16T11:11:09;3.03;;;0.80;;
39788;SDS011;25478;42.626;23.320;2022-09-16T11:18:55;1.90;;;0.80;;
39788;SDS011;25478;42.626;23.320;2022-09-16T11:26:48;1.40;;;0.60;;
39788;SDS011;25478;42.626;23.320;2022-09-16T11:29:45;1.10;;;0.55;;
39788;SDS011;25478;42.626;23.320;2022-09-16T11:37:49;0.95;;;0.30;;
39788;SDS011;25478;42.626;23.320;2022-09-16T11:46:08;2.28;;;0.43;;
39788;SDS011;25478;42.626;23.320;2022-09-16T11:51:40;2.28;;;0.60;;
39788;SDS011;25478;42.626;23.320;2022-09-16T12:02:12;2.80;;;1.13;;
39788;SDS011;25478;42.626;23.320;2022-09-16T12:04:54;3.83;;;1.20;;
39788;SDS011;25478;42.626;23.320;2022-09-16T12:07:26;3.65;;;0.93;;
39788;SDS011;25478;42.626;23.320;2022-09-16T12:12:34;5.30;;;1.42;;
39788;SDS011;25478;42.626;23.320;2022-09-16T12:15:23;4.28;;;1.30;;
39788;SDS011;25478;42.626;23.320;2022-09-16T12:17:54;4.13;;;1.30;;
39788;SDS011;25478;42.626;23.320;2022-09-16T12:20:32;6.95;;;1.58;;
39788;SDS011;25478;42.626;23.320;2022-09-16T12:23:16;3.45;;;1.23;;
39788;SDS011;25478;42.626;23.320;2022-09-16T12:25:47;3.83;;;1.30;;
39788;SDS011;25478;42.626;23.320;2022-09-16T12:28:22;5.60;;;1.77;;
39788;SDS011;25478;42.626;23.320;2022-09-16T12:31:02;3.70;;;1.38;;
39788;SDS011;25478;42.626;23.320;2022-09-16T12:33:42;4.72;;;1.58;;
39788;SDS011;25478;42.626;23.320;2022-09-16T12:36:14;3.40;;;1.48;;
39788;SDS011;25478;42.626;23.320;2022-09-16T12:38:43;5.45;;;1.17;;
39788;SDS011;25478;42.626;23.320;2022-09-16T12:50:05;6.40;;;1.60;;
39788;SDS011;25478;42.626;23.320;2022-09-16T12:56:26;8.43;;;1.75;;
39788;SDS011;25478;42.626;23.320;2022-09-16T13:02:11;5.53;;;1.70;;
39788;SDS011;25478;42.626;23.320;2022-09-16T13:04:42;6.05;;;2.28;;
39788;SDS011;25478;42.626;23.320;2022-09-16T13:12:48;13.05;;;2.28;;
39788;SDS011;25478;42.626;23.320;2022-09-16T13:15:23;5.25;;;2.30;;
39788;SDS011;25478;42.626;23.320;2022-09-16T13:17:51;5.35;;;1.67;;
39788;SDS011;25478;42.626;23.320;2022-09-16T13:20:27;3.63;;;1.10;;
39788;SDS011;25478;42.626;23.320;2022-09-16T13:23:04;4.65;;;1.40;;
39788;SDS011;25478;42.626;23.320;2022-09-16T13:30:50;4.07;;;1.15;;
39788;SDS011;25478;42.626;23.320;2022-09-16T13:33:23;4.53;;;1.20;;
39788;SDS011;25478;42.626;23.320;2022-09-16T13:36:02;6.82;;;1.85;;
39788;SDS011;25478;42.626;23.320;2022-09-16T13:38:41;4.72;;;1.63;;
39788;SDS011;25478;42.626;23.320;2022-09-16T13:41:10;3.25;;;1.58;;
39788;SDS011;25478;42.626;23.320;2022-09-16T13:46:07;4.82;;;1.65;;
39788;SDS011;25478;42.626;23.320;2022-09-16T13:48:34;5.40;;;1.65;;
39788;SDS011;25478;42.626;23.320;2022-09-16T13:51:08;6.32;;;1.80;;
39788;SDS011;25478;42.626;23.320;2022-09-16T13:53:47;5.28;;;1.63;;
39788;SDS011;25478;42.626;23.320;2022-09-16T13:59:00;6.32;;;1.60;;
39788;SDS011;25478;42.626;23.320;2022-09-16T14:10:17;4.93;;;1.85;;
39788;SDS011;25478;42.626;23.320;2022-09-16T14:15:28;4.80;;;1.55;;
39788;SDS011;25478;42.626;23.320;2022-09-16T14:18:00;3.78;;;1.70;;
39788;SDS011;25478;42.626;23.320;2022-09-16T14:20:28;6.93;;;1.75;;
39788;SDS011;25478;42.626;23.320;2022-09-16T14:23:01;7.30;;;2.13;;
39788;SDS011;25478;42.626;23.320;2022-09-16T14:25:39;6.18;;;1.52;;
39788;SDS011;25478;42.626;23.320;2022-09-16T14:28:06;4.53;;;1.63;;
39788;SDS011;25478;42.626;23.320;2022-09-16T14:30:31;8.00;;;2.38;;
39788;SDS011;25478;42.626;23.320;2022-09-16T14:32:57;6.15;;;1.90;;
39788;SDS011;25478;42.626;23.320;2022-09-16T14:35:23;6.65;;;1.80;;
39788;SDS011;25478;42.626;23.320;2022-09-16T14:37:57;5.03;;;1.80;;
39788;SDS011;25478;42.626;23.320;2022-09-16T14:40:27;7.75;;;2.40;;
39788;SDS011;25478;42.626;23.320;2022-09-16T14:45:24;8.32;;;2.25;;
39788;SDS011;25478;42.626;23.320;2022-09-16T14:47:50;5.97;;;1.75;;
39788;SDS011;25478;42.626;23.320;2022-09-16T14:52:53;4.57;;;1.65;;
39788;SDS011;25478;42.626;23.320;2022-09-16T14:55:21;4.25;;;1.33;;
39788;SDS011;25478;42.626;23.320;2022-09-16T14:57:49;4.10;;;1.40;;
39788;SDS011;25478;42.626;23.320;2022-09-16T15:00:16;4.38;;;1.90;;
39788;SDS011;25478;42.626;23.320;2022-09-16T15:05:26;4.95;;;1.40;;
39788;SDS011;25478;42.626;23.320;2022-09-16T15:08:17;3.88;;;1.30;;
39788;SDS011;25478;42.626;23.320;2022-09-16T15:10:47;4.65;;;1.38;;
39788;SDS011;25478;42.626;23.320;2022-09-16T15:13:15;5.10;;;1.80;;
39788;SDS011;25478;42.626;23.320;2022-09-16T15:21:29;4.70;;;1.30;;
39788;SDS011;25478;42.626;23.320;2022-09-16T15:23:59;6.95;;;1.20;;
39788;SDS011;25478;42.626;23.320;2022-09-16T15:26:39;3.75;;;1.23;;
39788;SDS011;25478;42.626;23.320;2022-09-16T15:31:42;4.35;;;1.70;;
39788;SDS011;25478;42.626;23.320;2022-09-16T15:37:04;3.85;;;1.42;;
39788;SDS011;25478;42.626;23.320;2022-09-16T15:39:30;5.18;;;2.30;;
39788;SDS011;25478;42.626;23.320;2022-09-16T15:42:15;5.13;;;1.70;;
39788;SDS011;25478;42.626;23.320;2022-09-16T15:44:47;7.13;;;2.00;;
39788;SDS011;25478;42.626;23.320;2022-09-16T15:47:26;4.28;;;2.00;;
39788;SDS011;25478;42.626;23.320;2022-09-16T15:50:11;5.55;;;2.30;;
39788;SDS011;25478;42.626;23.320;2022-09-16T15:55:12;7.03;;;1.80;;
39788;SDS011;25478;42.626;23.320;2022-09-16T15:57:47;7.78;;;3.03;;
39788;SDS011;25478;42.626;23.320;2022-09-16T16:00:12;7.32;;;2.97;;
39788;SDS011;25478;42.626;23.320;2022-09-16T16:02:48;8.90;;;3.10;;
39788;SDS011;25478;42.626;23.320;2022-09-16T16:05:18;7.03;;;3.10;;
39788;SDS011;25478;42.626;23.320;2022-09-16T16:07:47;9.85;;;3.20;;
39788;SDS011;25478;42.626;23.320;2022-09-16T16:10:20;9.30;;;3.13;;
39788;SDS011;25478;42.626;23.320;2022-09-16T16:12:46;8.50;;;3.00;;
39788;SDS011;25478;42.626;23.320;2022-09-16T16:15:55;6.60;;;3.63;;
39788;SDS011;25478;42.626;23.320;2022-09-16T16:18:04;7.20;;;3.03;;
39788;SDS011;25478;42.626;23.320;2022-09-16T16:20:32;8.48;;;3.53;;
39788;SDS011;25478;42.626;23.320;2022-09-16T16:23:00;9.75;;;3.42;;
39788;SDS011;25478;42.626;23.320;2022-09-16T16:25:26;9.73;;;3.83;;
39788;SDS011;25478;42.626;23.320;2022-09-16T16:27:52;13.80;;;4.03;;
39788;SDS011;25478;42.626;23.320;2022-09-16T16:30:17;6.68;;;3.33;;
39788;SDS011;25478;42.626;23.320;2022-09-16T16:32:44;8.73;;;3.50;;
39788;SDS011;25478;42.626;23.320;2022-09-16T16:35:10;8.25;;;3.35;;
39788;SDS011;25478;42.626;23.320;2022-09-16T16:37:35;9.75;;;4.38;;
39788;SDS011;25478;42.626;23.320;2022-09-16T16:40:02;7.70;;;4.03;;
39788;SDS011;25478;42.626;23.320;2022-09-16T16:42:29;7.35;;;2.35;;
39788;SDS011;25478;42.626;23.320;2022-09-16T16:44:54;7.97;;;2.65;;
39788;SDS011;25478;42.626;23.320;2022-09-16T16:47:20;6.30;;;2.92;;
39788;SDS011;25478;42.626;23.320;2022-09-16T16:49:46;8.02;;;3.03;;
39788;SDS011;25478;42.626;23.320;2022-09-16T16:52:11;9.20;;;3.40;;
39788;SDS011;25478;42.626;23.320;2022-09-16T16:54:37;6.72;;;2.97;;
39788;SDS011;25478;42.626;23.320;2022-09-16T16:57:03;8.80;;;3.30;;
39788;SDS011;25478;42.626;23.320;2022-09-16T16:59:28;7.05;;;3.53;;
39788;SDS011;25478;42.626;23.320;2022-09-16T17:01:55;8.55;;;3.50;;
39788;SDS011;25478;42.626;23.320;2022-09-16T17:04:22;9.13;;;3.65;;
39788;SDS011;25478;42.626;23.320;2022-09-16T17:06:48;6.13;;;3.65;;
39788;SDS011;25478;42.626;23.320;2022-09-16T17:09:14;8.15;;;3.85;;
39788;SDS011;25478;42.626;23.320;2022-09-16T17:11:51;9.50;;;3.90;;
39788;SDS011;25478;42.626;23.320;2022-09-16T17:14:18;7.50;;;3.58;;
39788;SDS011;25478;42.626;23.320;2022-09-16T17:16:45;7.20;;;3.13;;
39788;SDS011;25478;42.626;23.320;2022-09-16T17:19:12;8.35;;;3.30;;
39788;SDS011;25478;42.626;23.320;2022-09-16T17:21:39;10.10;;;3.78;;
39788;SDS011;25478;42.626;23.320;2022-09-16T17:24:05;7.95;;;3.60;;
39788;SDS011;25478;42.626;23.320;2022-09-16T17:26:31;9.13;;;3.95;;
39788;SDS011;25478;42.626;23.320;2022-09-16T17:28:57;8.07;;;3.75;;
39788;SDS011;25478;42.626;23.320;2022-09-16T17:31:27;8.10;;;3.60;;
39788;SDS011;25478;42.626;23.320;2022-09-16T17:33:55;9.10;;;3.80;;
39788;SDS011;25478;42.626;23.320;2022-09-16T17:36:31;7.80;;;3.65;;
39788;SDS011;25478;42.626;23.320;2022-09-16T17:38:59;7.45;;;3.85;;
39788;SDS011;25478;42.626;23.320;2022-09-16T17:41:26;7.68;;;4.18;;
39788;SDS011;25478;42.626;23.320;2022-09-16T17:43:52;8.85;;;3.50;;
39788;SDS011;25478;42.626;23.320;2022-09-16T17:46:19;8.18;;;3.90;;
39788;SDS011;25478;42.626;23.320;2022-09-16T17:48:47;10.55;;;3.08;;
39788;SDS011;25478;42.626;23.320;2022-09-16T17:51:15;7.45;;;3.20;;
39788;SDS011;25478;42.626;23.320;2022-09-16T17:53:41;6.93;;;3.30;;
39788;SDS011;25478;42.626;23.320;2022-09-16T17:56:07;7.90;;;2.95;;
39788;SDS011;25478;42.626;23.320;2022-09-16T17:58:38;5.95;;;3.75;;
39788;SDS011;25478;42.626;23.320;2022-09-16T18:03:36;6.97;;;3.13;;
39788;SDS011;25478;42.626;23.320;2022-09-16T18:08:44;9.93;;;3.30;;
39788;SDS011;25478;42.626;23.320;2022-09-16T18:11:11;7.57;;;2.97;;
39788;SDS011;25478;42.626;23.320;2022-09-16T18:13:37;7.82;;;3.13;;
39788;SDS011;25478;42.626;23.320;2022-09-16T18:16:04;6.65;;;3.28;;
39788;SDS011;25478;42.626;23.320;2022-09-16T18:18:34;6.22;;;3.20;;
39788;SDS011;25478;42.626;23.320;2022-09-16T18:21:04;5.93;;;2.83;;
39788;SDS011;25478;42.626;23.320;2022-09-16T18:23:31;6.43;;;2.60;;
39788;SDS011;25478;42.626;23.320;2022-09-16T18:26:01;6.60;;;2.70;;
39788;SDS011;25478;42.626;23.320;2022-09-16T18:28:29;6.30;;;3.13;;